sensor_id;sensor_type;location;lat;lon;timestamp;P1;durP1;ratioP1;P2;durP2;ratioP2
43449;SDS011;29041;42.266;23.110;2022-09-29T00:00:10;4.70;;;1.30;;
43449;SDS011;29041;42.266;23.110;2022-09-29T00:02:58;5.55;;;2.45;;
43449;SDS011;29041;42.266;23.110;2022-09-29T00:05:46;3.00;;;1.50;;
43449;SDS011;29041;42.266;23.110;2022-09-29T00:08:35;1.83;;;1.48;;
43449;SDS011;29041;42.266;23.110;2022-09-29T00:11:24;4.85;;;1.60;;
43449;SDS011;29041;42.266;23.110;2022-09-29T00:14:11;2.83;;;1.52;;
43449;SDS011;29041;42.266;23.110;2022-09-29T00:16:58;3.17;;;1.30;;
43449;SDS011;29041;42.266;23.110;2022-09-29T00:19:45;4.95;;;1.88;;
43449;SDS011;29041;42.266;23.110;2022-09-29T00:22:32;2.83;;;1.98;;
43449;SDS011;29041;42.266;23.110;2022-09-29T00:25:19;4.22;;;2.78;;
43449;SDS011;29041;42.266;23.110;2022-09-29T00:28:08;5.15;;;2.53;;
43449;SDS011;29041;42.266;23.110;2022-09-29T00:30:56;2.50;;;2.20;;
43449;SDS011;29041;42.266;23.110;2022-09-29T00:33:44;4.35;;;1.83;;
43449;SDS011;29041;42.266;23.110;2022-09-29T00:36:31;3.28;;;2.38;;
43449;SDS011;29041;42.266;23.110;2022-09-29T00:39:18;4.13;;;1.75;;
43449;SDS011;29041;42.266;23.110;2022-09-29T00:42:06;3.03;;;1.77;;
43449;SDS011;29041;42.266;23.110;2022-09-29T00:45:01;1.88;;;1.52;;
43449;SDS011;29041;42.266;23.110;2022-09-29T00:48:02;3.50;;;2.90;;
43449;SDS011;29041;42.266;23.110;2022-09-29T00:50:56;5.88;;;2.80;;
43449;SDS011;29041;42.266;23.110;2022-09-29T00:53:44;6.53;;;2.55;;
43449;SDS011;29041;42.266;23.110;2022-09-29T00:56:32;1.98;;;1.60;;
43449;SDS011;29041;42.266;23.110;2022-09-29T00:59:24;5.50;;;2.30;;
43449;SDS011;29041;42.266;23.110;2022-09-29T01:02:19;4.47;;;1.70;;
43449;SDS011;29041;42.266;23.110;2022-09-29T01:05:10;3.97;;;1.83;;
43449;SDS011;29041;42.266;23.110;2022-09-29T01:08:02;2.42;;;1.70;;
43449;SDS011;29041;42.266;23.110;2022-09-29T01:10:55;3.60;;;1.75;;
43449;SDS011;29041;42.266;23.110;2022-09-29T01:13:43;2.17;;;1.40;;
43449;SDS011;29041;42.266;23.110;2022-09-29T01:16:30;4.45;;;1.90;;
43449;SDS011;29041;42.266;23.110;2022-09-29T01:19:21;5.50;;;2.83;;
43449;SDS011;29041;42.266;23.110;2022-09-29T01:22:19;4.97;;;2.55;;
43449;SDS011;29041;42.266;23.110;2022-09-29T01:25:30;2.80;;;1.40;;
43449;SDS011;29041;42.266;23.110;2022-09-29T01:32:18;1.55;;;0.93;;
43449;SDS011;29041;42.266;23.110;2022-09-29T01:35:13;2.20;;;0.85;;
43449;SDS011;29041;42.266;23.110;2022-09-29T01:38:08;2.10;;;1.35;;
43449;SDS011;29041;42.266;23.110;2022-09-29T01:41:06;1.63;;;1.33;;
43449;SDS011;29041;42.266;23.110;2022-09-29T01:44:00;2.90;;;1.15;;
43449;SDS011;29041;42.266;23.110;2022-09-29T01:46:52;1.65;;;1.27;;
43449;SDS011;29041;42.266;23.110;2022-09-29T01:49:44;2.47;;;1.02;;
43449;SDS011;29041;42.266;23.110;2022-09-29T01:52:37;3.63;;;1.13;;
43449;SDS011;29041;42.266;23.110;2022-09-29T01:55:30;2.55;;;1.35;;
43449;SDS011;29041;42.266;23.110;2022-09-29T01:58:22;1.20;;;1.02;;
43449;SDS011;29041;42.266;23.110;2022-09-29T02:01:13;2.83;;;1.17;;
43449;SDS011;29041;42.266;23.110;2022-09-29T02:04:03;1.48;;;1.15;;
43449;SDS011;29041;42.266;23.110;2022-09-29T02:06:56;1.60;;;1.38;;
43449;SDS011;29041;42.266;23.110;2022-09-29T02:09:49;6.15;;;1.80;;
43449;SDS011;29041;42.266;23.110;2022-09-29T02:12:42;4.47;;;2.92;;
43449;SDS011;29041;42.266;23.110;2022-09-29T02:15:31;4.68;;;1.45;;
43449;SDS011;29041;42.266;23.110;2022-09-29T02:18:23;2.33;;;1.52;;
43449;SDS011;29041;42.266;23.110;2022-09-29T02:21:16;3.17;;;1.55;;
43449;SDS011;29041;42.266;23.110;2022-09-29T02:24:05;2.75;;;1.50;;
43449;SDS011;29041;42.266;23.110;2022-09-29T02:26:52;3.90;;;1.63;;
43449;SDS011;29041;42.266;23.110;2022-09-29T02:29:39;2.08;;;1.58;;
43449;SDS011;29041;42.266;23.110;2022-09-29T02:32:27;2.72;;;1.30;;
43449;SDS011;29041;42.266;23.110;2022-09-29T02:35:15;1.35;;;1.02;;
43449;SDS011;29041;42.266;23.110;2022-09-29T02:38:03;3.33;;;1.00;;
43449;SDS011;29041;42.266;23.110;2022-09-29T02:40:57;4.03;;;1.17;;
43449;SDS011;29041;42.266;23.110;2022-09-29T02:43:57;5.78;;;1.60;;
43449;SDS011;29041;42.266;23.110;2022-09-29T02:47:25;1.73;;;1.05;;
43449;SDS011;29041;42.266;23.110;2022-09-29T02:50:27;3.60;;;1.15;;
43449;SDS011;29041;42.266;23.110;2022-09-29T02:53:31;2.97;;;1.23;;
43449;SDS011;29041;42.266;23.110;2022-09-29T02:56:26;2.47;;;1.05;;
43449;SDS011;29041;42.266;23.110;2022-09-29T02:59:22;3.55;;;1.63;;
43449;SDS011;29041;42.266;23.110;2022-09-29T03:02:14;2.60;;;1.17;;
43449;SDS011;29041;42.266;23.110;2022-09-29T03:05:02;4.05;;;1.77;;
43449;SDS011;29041;42.266;23.110;2022-09-29T03:07:50;3.22;;;1.42;;
43449;SDS011;29041;42.266;23.110;2022-09-29T03:10:37;5.32;;;1.50;;
43449;SDS011;29041;42.266;23.110;2022-09-29T03:13:26;2.45;;;1.00;;
43449;SDS011;29041;42.266;23.110;2022-09-29T03:16:13;3.80;;;3.38;;
43449;SDS011;29041;42.266;23.110;2022-09-29T03:19:00;3.20;;;1.88;;
43449;SDS011;29041;42.266;23.110;2022-09-29T03:21:48;4.28;;;3.05;;
43449;SDS011;29041;42.266;23.110;2022-09-29T03:24:35;7.72;;;1.38;;
43449;SDS011;29041;42.266;23.110;2022-09-29T03:27:22;3.38;;;1.92;;
43449;SDS011;29041;42.266;23.110;2022-09-29T03:30:11;2.88;;;1.92;;
43449;SDS011;29041;42.266;23.110;2022-09-29T03:32:59;3.85;;;2.83;;
43449;SDS011;29041;42.266;23.110;2022-09-29T03:35:46;2.08;;;1.63;;
43449;SDS011;29041;42.266;23.110;2022-09-29T03:38:33;3.38;;;1.50;;
43449;SDS011;29041;42.266;23.110;2022-09-29T03:41:21;3.92;;;1.73;;
43449;SDS011;29041;42.266;23.110;2022-09-29T03:44:08;4.97;;;1.60;;
43449;SDS011;29041;42.266;23.110;2022-09-29T03:46:56;4.07;;;2.33;;
43449;SDS011;29041;42.266;23.110;2022-09-29T03:49:48;1.73;;;1.48;;
43449;SDS011;29041;42.266;23.110;2022-09-29T03:52:36;2.40;;;1.10;;
43449;SDS011;29041;42.266;23.110;2022-09-29T03:55:23;4.97;;;1.48;;
43449;SDS011;29041;42.266;23.110;2022-09-29T03:58:10;2.20;;;1.27;;
43449;SDS011;29041;42.266;23.110;2022-09-29T04:00:57;2.28;;;1.70;;
43449;SDS011;29041;42.266;23.110;2022-09-29T04:03:46;2.92;;;1.52;;
43449;SDS011;29041;42.266;23.110;2022-09-29T04:06:33;2.08;;;1.83;;
43449;SDS011;29041;42.266;23.110;2022-09-29T04:09:20;4.88;;;3.05;;
43449;SDS011;29041;42.266;23.110;2022-09-29T04:12:07;2.40;;;2.13;;
43449;SDS011;29041;42.266;23.110;2022-09-29T04:14:55;3.80;;;1.92;;
43449;SDS011;29041;42.266;23.110;2022-09-29T04:17:42;3.03;;;2.72;;
43449;SDS011;29041;42.266;23.110;2022-09-29T04:20:31;5.22;;;1.65;;
43449;SDS011;29041;42.266;23.110;2022-09-29T04:23:18;2.92;;;1.70;;
43449;SDS011;29041;42.266;23.110;2022-09-29T04:26:06;2.67;;;1.83;;
43449;SDS011;29041;42.266;23.110;2022-09-29T04:28:54;3.53;;;1.50;;
43449;SDS011;29041;42.266;23.110;2022-09-29T04:31:41;2.38;;;1.63;;
43449;SDS011;29041;42.266;23.110;2022-09-29T04:34:28;3.15;;;2.13;;
43449;SDS011;29041;42.266;23.110;2022-09-29T04:37:17;2.22;;;1.52;;
43449;SDS011;29041;42.266;23.110;2022-09-29T04:40:04;3.30;;;1.60;;
43449;SDS011;29041;42.266;23.110;2022-09-29T04:42:52;5.47;;;1.90;;
43449;SDS011;29041;42.266;23.110;2022-09-29T04:45:39;5.93;;;3.85;;
43449;SDS011;29041;42.266;23.110;2022-09-29T04:48:26;5.85;;;1.80;;
43449;SDS011;29041;42.266;23.110;2022-09-29T04:51:13;8.02;;;2.08;;
43449;SDS011;29041;42.266;23.110;2022-09-29T04:54:02;2.75;;;1.90;;
43449;SDS011;29041;42.266;23.110;2022-09-29T04:56:50;3.42;;;2.40;;
43449;SDS011;29041;42.266;23.110;2022-09-29T04:59:37;4.30;;;3.10;;
43449;SDS011;29041;42.266;23.110;2022-09-29T05:02:24;6.15;;;2.53;;
43449;SDS011;29041;42.266;23.110;2022-09-29T05:05:16;4.18;;;2.10;;
43449;SDS011;29041;42.266;23.110;2022-09-29T05:08:03;3.22;;;2.08;;
43449;SDS011;29041;42.266;23.110;2022-09-29T05:10:52;3.63;;;1.95;;
43449;SDS011;29041;42.266;23.110;2022-09-29T05:13:39;3.67;;;1.73;;
43449;SDS011;29041;42.266;23.110;2022-09-29T05:16:27;9.88;;;4.20;;
43449;SDS011;29041;42.266;23.110;2022-09-29T05:19:14;3.72;;;2.22;;
43449;SDS011;29041;42.266;23.110;2022-09-29T05:22:02;4.32;;;2.55;;
43449;SDS011;29041;42.266;23.110;2022-09-29T05:24:49;2.97;;;2.38;;
43449;SDS011;29041;42.266;23.110;2022-09-29T05:27:38;7.50;;;1.98;;
43449;SDS011;29041;42.266;23.110;2022-09-29T05:30:25;8.05;;;2.97;;
43449;SDS011;29041;42.266;23.110;2022-09-29T05:33:12;7.55;;;3.47;;
43449;SDS011;29041;42.266;23.110;2022-09-29T05:35:59;4.32;;;2.40;;
43449;SDS011;29041;42.266;23.110;2022-09-29T05:38:47;6.82;;;2.50;;
43449;SDS011;29041;42.266;23.110;2022-09-29T05:41:37;5.40;;;2.10;;
43449;SDS011;29041;42.266;23.110;2022-09-29T05:44:26;4.88;;;1.95;;
43449;SDS011;29041;42.266;23.110;2022-09-29T05:47:14;2.25;;;1.55;;
43449;SDS011;29041;42.266;23.110;2022-09-29T05:50:01;1.83;;;1.45;;
43449;SDS011;29041;42.266;23.110;2022-09-29T05:52:48;3.55;;;1.35;;
43449;SDS011;29041;42.266;23.110;2022-09-29T05:55:37;4.18;;;1.23;;
43449;SDS011;29041;42.266;23.110;2022-09-29T05:58:24;4.60;;;2.15;;
43449;SDS011;29041;42.266;23.110;2022-09-29T06:01:17;2.22;;;1.10;;
43449;SDS011;29041;42.266;23.110;2022-09-29T06:04:05;4.05;;;1.42;;
43449;SDS011;29041;42.266;23.110;2022-09-29T06:06:52;4.13;;;1.73;;
43449;SDS011;29041;42.266;23.110;2022-09-29T06:09:39;4.10;;;1.77;;
43449;SDS011;29041;42.266;23.110;2022-09-29T06:12:26;3.70;;;1.27;;
43449;SDS011;29041;42.266;23.110;2022-09-29T06:15:14;3.83;;;1.60;;
43449;SDS011;29041;42.266;23.110;2022-09-29T06:18:02;4.05;;;1.25;;
43449;SDS011;29041;42.266;23.110;2022-09-29T06:20:50;1.80;;;1.20;;
43449;SDS011;29041;42.266;23.110;2022-09-29T06:23:37;1.98;;;1.13;;
43449;SDS011;29041;42.266;23.110;2022-09-29T06:26:24;4.20;;;1.77;;
43449;SDS011;29041;42.266;23.110;2022-09-29T06:29:12;1.98;;;1.50;;
43449;SDS011;29041;42.266;23.110;2022-09-29T06:32:00;5.88;;;1.38;;
43449;SDS011;29041;42.266;23.110;2022-09-29T06:34:49;4.45;;;1.20;;
43449;SDS011;29041;42.266;23.110;2022-09-29T06:37:53;1.70;;;1.05;;
43449;SDS011;29041;42.266;23.110;2022-09-29T06:40:41;2.25;;;1.50;;
43449;SDS011;29041;42.266;23.110;2022-09-29T06:43:28;3.17;;;1.20;;
43449;SDS011;29041;42.266;23.110;2022-09-29T06:46:15;7.82;;;1.45;;
43449;SDS011;29041;42.266;23.110;2022-09-29T06:49:02;5.07;;;1.33;;
43449;SDS011;29041;42.266;23.110;2022-09-29T06:51:51;1.73;;;1.05;;
43449;SDS011;29041;42.266;23.110;2022-09-29T06:54:38;2.33;;;1.52;;
43449;SDS011;29041;42.266;23.110;2022-09-29T06:57:25;8.10;;;4.78;;
43449;SDS011;29041;42.266;23.110;2022-09-29T07:00:13;8.15;;;2.05;;
43449;SDS011;29041;42.266;23.110;2022-09-29T07:03:00;1.77;;;1.00;;
43449;SDS011;29041;42.266;23.110;2022-09-29T07:05:47;2.47;;;1.42;;
43449;SDS011;29041;42.266;23.110;2022-09-29T07:08:36;3.75;;;1.67;;
43449;SDS011;29041;42.266;23.110;2022-09-29T07:11:24;2.40;;;1.33;;
43449;SDS011;29041;42.266;23.110;2022-09-29T07:14:14;3.17;;;1.40;;
43449;SDS011;29041;42.266;23.110;2022-09-29T07:17:02;4.18;;;1.60;;
43449;SDS011;29041;42.266;23.110;2022-09-29T07:19:49;2.22;;;1.08;;
43449;SDS011;29041;42.266;23.110;2022-09-29T07:22:39;4.07;;;1.60;;
43449;SDS011;29041;42.266;23.110;2022-09-29T07:25:27;2.05;;;1.17;;
43449;SDS011;29041;42.266;23.110;2022-09-29T07:28:14;1.60;;;1.05;;
43449;SDS011;29041;42.266;23.110;2022-09-29T07:31:02;2.65;;;0.95;;
43449;SDS011;29041;42.266;23.110;2022-09-29T07:33:51;3.08;;;1.40;;
43449;SDS011;29041;42.266;23.110;2022-09-29T07:36:38;2.17;;;0.93;;
43449;SDS011;29041;42.266;23.110;2022-09-29T07:39:25;1.35;;;1.00;;
43449;SDS011;29041;42.266;23.110;2022-09-29T07:42:14;1.67;;;0.95;;
43449;SDS011;29041;42.266;23.110;2022-09-29T07:45:02;2.63;;;1.35;;
43449;SDS011;29041;42.266;23.110;2022-09-29T07:47:50;4.38;;;1.02;;
43449;SDS011;29041;42.266;23.110;2022-09-29T07:50:37;1.08;;;0.75;;
43449;SDS011;29041;42.266;23.110;2022-09-29T07:53:24;1.50;;;0.95;;
43449;SDS011;29041;42.266;23.110;2022-09-29T07:56:12;1.60;;;1.23;;
43449;SDS011;29041;42.266;23.110;2022-09-29T07:59:04;2.30;;;0.85;;
43449;SDS011;29041;42.266;23.110;2022-09-29T08:01:51;1.33;;;0.98;;
43449;SDS011;29041;42.266;23.110;2022-09-29T08:04:38;1.58;;;0.90;;
43449;SDS011;29041;42.266;23.110;2022-09-29T08:07:25;2.65;;;1.35;;
43449;SDS011;29041;42.266;23.110;2022-09-29T08:10:12;1.90;;;0.73;;
43449;SDS011;29041;42.266;23.110;2022-09-29T08:12:59;3.97;;;1.30;;
43449;SDS011;29041;42.266;23.110;2022-09-29T08:15:48;1.25;;;0.85;;
43449;SDS011;29041;42.266;23.110;2022-09-29T08:18:43;1.30;;;1.20;;
43449;SDS011;29041;42.266;23.110;2022-09-29T08:21:30;1.60;;;1.00;;
43449;SDS011;29041;42.266;23.110;2022-09-29T08:24:20;1.90;;;1.27;;
43449;SDS011;29041;42.266;23.110;2022-09-29T08:27:09;2.28;;;1.05;;
43449;SDS011;29041;42.266;23.110;2022-09-29T08:29:57;1.23;;;0.68;;
43449;SDS011;29041;42.266;23.110;2022-09-29T08:32:50;2.03;;;0.93;;
43449;SDS011;29041;42.266;23.110;2022-09-29T08:35:38;3.00;;;0.70;;
43449;SDS011;29041;42.266;23.110;2022-09-29T08:38:25;3.05;;;0.88;;
43449;SDS011;29041;42.266;23.110;2022-09-29T08:41:22;2.53;;;0.70;;
43449;SDS011;29041;42.266;23.110;2022-09-29T08:44:20;1.63;;;0.70;;
43449;SDS011;29041;42.266;23.110;2022-09-29T08:47:15;5.35;;;0.50;;
43449;SDS011;29041;42.266;23.110;2022-09-29T08:50:09;1.10;;;0.85;;
43449;SDS011;29041;42.266;23.110;2022-09-29T08:53:01;0.80;;;0.80;;
43449;SDS011;29041;42.266;23.110;2022-09-29T08:55:53;1.55;;;0.60;;
43449;SDS011;29041;42.266;23.110;2022-09-29T08:58:43;1.02;;;0.60;;
43449;SDS011;29041;42.266;23.110;2022-09-29T09:01:31;1.40;;;0.85;;
43449;SDS011;29041;42.266;23.110;2022-09-29T09:04:37;0.80;;;0.68;;
43449;SDS011;29041;42.266;23.110;2022-09-29T09:07:42;1.33;;;0.80;;
43449;SDS011;29041;42.266;23.110;2022-09-29T09:10:41;1.23;;;1.10;;
43449;SDS011;29041;42.266;23.110;2022-09-29T09:13:36;3.25;;;0.80;;
43449;SDS011;29041;42.266;23.110;2022-09-29T09:16:42;1.70;;;0.90;;
43449;SDS011;29041;42.266;23.110;2022-09-29T09:23:03;3.20;;;1.23;;
43449;SDS011;29041;42.266;23.110;2022-09-29T09:26:01;2.03;;;0.95;;
43449;SDS011;29041;42.266;23.110;2022-09-29T09:28:50;1.65;;;1.25;;
43449;SDS011;29041;42.266;23.110;2022-09-29T09:31:42;3.38;;;1.88;;
43449;SDS011;29041;42.266;23.110;2022-09-29T09:34:33;3.03;;;1.88;;
43449;SDS011;29041;42.266;23.110;2022-09-29T09:37:27;2.60;;;1.38;;
43449;SDS011;29041;42.266;23.110;2022-09-29T09:40:20;1.30;;;0.82;;
43449;SDS011;29041;42.266;23.110;2022-09-29T09:46:01;0.73;;;0.57;;
43449;SDS011;29041;42.266;23.110;2022-09-29T09:48:56;1.67;;;0.75;;
43449;SDS011;29041;42.266;23.110;2022-09-29T09:51:49;2.47;;;1.05;;
43449;SDS011;29041;42.266;23.110;2022-09-29T09:54:42;3.47;;;0.77;;
43449;SDS011;29041;42.266;23.110;2022-09-29T09:57:51;4.10;;;0.98;;
43449;SDS011;29041;42.266;23.110;2022-09-29T10:00:49;1.95;;;0.93;;
43449;SDS011;29041;42.266;23.110;2022-09-29T10:03:47;0.90;;;0.52;;
43449;SDS011;29041;42.266;23.110;2022-09-29T10:06:35;0.50;;;0.40;;
43449;SDS011;29041;42.266;23.110;2022-09-29T10:09:22;1.73;;;0.55;;
43449;SDS011;29041;42.266;23.110;2022-09-29T10:12:11;0.73;;;0.60;;
43449;SDS011;29041;42.266;23.110;2022-09-29T10:15:04;1.27;;;1.00;;
43449;SDS011;29041;42.266;23.110;2022-09-29T10:18:05;1.83;;;0.50;;
43449;SDS011;29041;42.266;23.110;2022-09-29T10:20:58;0.63;;;0.38;;
43449;SDS011;29041;42.266;23.110;2022-09-29T10:23:49;1.75;;;0.60;;
43449;SDS011;29041;42.266;23.110;2022-09-29T10:26:38;0.55;;;0.50;;
43449;SDS011;29041;42.266;23.110;2022-09-29T10:29:28;1.23;;;0.30;;
43449;SDS011;29041;42.266;23.110;2022-09-29T10:32:33;0.82;;;0.60;;
43449;SDS011;29041;42.266;23.110;2022-09-29T10:38:15;0.22;;;0.20;;
43449;SDS011;29041;42.266;23.110;2022-09-29T10:41:05;0.70;;;0.47;;
43449;SDS011;29041;42.266;23.110;2022-09-29T10:43:53;1.83;;;0.88;;
43449;SDS011;29041;42.266;23.110;2022-09-29T10:46:46;1.98;;;0.50;;
43449;SDS011;29041;42.266;23.110;2022-09-29T10:49:39;5.20;;;2.53;;
43449;SDS011;29041;42.266;23.110;2022-09-29T10:52:26;2.65;;;0.80;;
43449;SDS011;29041;42.266;23.110;2022-09-29T10:55:16;2.60;;;0.65;;
43449;SDS011;29041;42.266;23.110;2022-09-29T10:58:06;0.88;;;0.60;;
43449;SDS011;29041;42.266;23.110;2022-09-29T11:01:08;1.07;;;0.70;;
43449;SDS011;29041;42.266;23.110;2022-09-29T11:03:58;0.70;;;0.60;;
43449;SDS011;29041;42.266;23.110;2022-09-29T11:06:49;1.15;;;0.40;;
43449;SDS011;29041;42.266;23.110;2022-09-29T11:09:37;1.02;;;0.50;;
43449;SDS011;29041;42.266;23.110;2022-09-29T11:12:32;0.65;;;0.60;;
43449;SDS011;29041;42.266;23.110;2022-09-29T11:15:24;2.55;;;0.50;;
43449;SDS011;29041;42.266;23.110;2022-09-29T11:18:16;3.38;;;1.42;;
43449;SDS011;29041;42.266;23.110;2022-09-29T11:21:11;1.85;;;0.70;;
43449;SDS011;29041;42.266;23.110;2022-09-29T11:24:24;1.25;;;0.88;;
43449;SDS011;29041;42.266;23.110;2022-09-29T11:27:29;1.67;;;0.82;;
43449;SDS011;29041;42.266;23.110;2022-09-29T11:30:23;0.50;;;0.30;;
43449;SDS011;29041;42.266;23.110;2022-09-29T11:33:18;1.13;;;0.60;;
43449;SDS011;29041;42.266;23.110;2022-09-29T11:36:16;2.78;;;0.90;;
43449;SDS011;29041;42.266;23.110;2022-09-29T11:39:15;1.17;;;0.50;;
43449;SDS011;29041;42.266;23.110;2022-09-29T11:42:19;0.75;;;0.45;;
43449;SDS011;29041;42.266;23.110;2022-09-29T11:45:19;0.68;;;0.60;;
43449;SDS011;29041;42.266;23.110;2022-09-29T11:48:32;1.42;;;0.47;;
43449;SDS011;29041;42.266;23.110;2022-09-29T11:51:29;1.05;;;0.28;;
43449;SDS011;29041;42.266;23.110;2022-09-29T11:54:37;1.65;;;0.43;;
43449;SDS011;29041;42.266;23.110;2022-09-29T11:57:58;1.10;;;0.40;;
43449;SDS011;29041;42.266;23.110;2022-09-29T12:04:13;0.73;;;0.30;;
43449;SDS011;29041;42.266;23.110;2022-09-29T12:07:12;0.90;;;0.30;;
43449;SDS011;29041;42.266;23.110;2022-09-29T12:10:22;1.27;;;0.30;;
43449;SDS011;29041;42.266;23.110;2022-09-29T12:13:24;1.00;;;0.20;;
43449;SDS011;29041;42.266;23.110;2022-09-29T12:16:21;0.90;;;0.43;;
43449;SDS011;29041;42.266;23.110;2022-09-29T12:19:13;1.30;;;0.52;;
43449;SDS011;29041;42.266;23.110;2022-09-29T12:22:04;1.38;;;0.57;;
43449;SDS011;29041;42.266;23.110;2022-09-29T12:24:55;0.75;;;0.45;;
43449;SDS011;29041;42.266;23.110;2022-09-29T12:27:45;0.80;;;0.55;;
43449;SDS011;29041;42.266;23.110;2022-09-29T12:30:38;0.95;;;0.30;;
43449;SDS011;29041;42.266;23.110;2022-09-29T12:33:32;1.00;;;0.75;;
43449;SDS011;29041;42.266;23.110;2022-09-29T12:36:28;0.30;;;0.30;;
43449;SDS011;29041;42.266;23.110;2022-09-29T12:39:32;0.50;;;0.40;;
43449;SDS011;29041;42.266;23.110;2022-09-29T12:42:27;0.73;;;0.40;;
43449;SDS011;29041;42.266;23.110;2022-09-29T12:45:25;1.15;;;0.40;;
43449;SDS011;29041;42.266;23.110;2022-09-29T12:48:20;0.70;;;0.40;;
43449;SDS011;29041;42.266;23.110;2022-09-29T12:51:16;0.65;;;0.57;;
43449;SDS011;29041;42.266;23.110;2022-09-29T12:54:11;0.80;;;0.50;;
43449;SDS011;29041;42.266;23.110;2022-09-29T12:57:03;1.88;;;0.47;;
43449;SDS011;29041;42.266;23.110;2022-09-29T12:59:56;0.28;;;0.28;;
43449;SDS011;29041;42.266;23.110;2022-09-29T13:02:55;0.50;;;0.40;;
43449;SDS011;29041;42.266;23.110;2022-09-29T13:09:41;1.27;;;1.15;;
43449;SDS011;29041;42.266;23.110;2022-09-29T13:12:47;0.50;;;0.40;;
43449;SDS011;29041;42.266;23.110;2022-09-29T13:15:50;2.33;;;0.52;;
43449;SDS011;29041;42.266;23.110;2022-09-29T13:18:47;1.17;;;0.68;;
43449;SDS011;29041;42.266;23.110;2022-09-29T13:21:54;1.25;;;0.80;;
43449;SDS011;29041;42.266;23.110;2022-09-29T13:24:52;2.20;;;0.98;;
43449;SDS011;29041;42.266;23.110;2022-09-29T13:27:44;1.20;;;0.50;;
43449;SDS011;29041;42.266;23.110;2022-09-29T13:30:34;0.90;;;0.70;;
43449;SDS011;29041;42.266;23.110;2022-09-29T13:33:24;1.67;;;0.50;;
43449;SDS011;29041;42.266;23.110;2022-09-29T13:36:19;1.02;;;0.63;;
43449;SDS011;29041;42.266;23.110;2022-09-29T13:39:16;0.73;;;0.57;;
43449;SDS011;29041;42.266;23.110;2022-09-29T13:45:36;1.42;;;0.60;;
43449;SDS011;29041;42.266;23.110;2022-09-29T13:48:35;1.73;;;0.50;;
43449;SDS011;29041;42.266;23.110;2022-09-29T13:51:44;1.35;;;0.60;;
43449;SDS011;29041;42.266;23.110;2022-09-29T13:54:35;0.52;;;0.50;;
43449;SDS011;29041;42.266;23.110;2022-09-29T13:57:24;1.15;;;0.68;;
43449;SDS011;29041;42.266;23.110;2022-09-29T14:00:16;2.10;;;0.70;;
43449;SDS011;29041;42.266;23.110;2022-09-29T14:03:20;0.80;;;0.57;;
43449;SDS011;29041;42.266;23.110;2022-09-29T14:06:14;2.28;;;1.23;;
43449;SDS011;29041;42.266;23.110;2022-09-29T14:09:03;2.55;;;0.50;;
43449;SDS011;29041;42.266;23.110;2022-09-29T14:11:53;4.85;;;1.55;;
43449;SDS011;29041;42.266;23.110;2022-09-29T14:14:43;1.63;;;0.82;;
43449;SDS011;29041;42.266;23.110;2022-09-29T14:17:41;1.92;;;0.60;;
43449;SDS011;29041;42.266;23.110;2022-09-29T14:20:36;2.47;;;0.57;;
43449;SDS011;29041;42.266;23.110;2022-09-29T14:26:42;1.95;;;0.65;;
43449;SDS011;29041;42.266;23.110;2022-09-29T14:29:31;2.47;;;0.60;;
43449;SDS011;29041;42.266;23.110;2022-09-29T14:32:29;2.65;;;1.05;;
43449;SDS011;29041;42.266;23.110;2022-09-29T14:35:28;2.25;;;0.70;;
43449;SDS011;29041;42.266;23.110;2022-09-29T14:38:19;1.38;;;1.02;;
43449;SDS011;29041;42.266;23.110;2022-09-29T14:44:11;0.90;;;0.80;;
43449;SDS011;29041;42.266;23.110;2022-09-29T14:47:11;4.72;;;0.73;;
43449;SDS011;29041;42.266;23.110;2022-09-29T14:50:35;0.88;;;0.63;;
43449;SDS011;29041;42.266;23.110;2022-09-29T14:53:53;1.33;;;0.73;;
43449;SDS011;29041;42.266;23.110;2022-09-29T14:56:51;3.03;;;1.30;;
43449;SDS011;29041;42.266;23.110;2022-09-29T14:59:51;1.85;;;0.98;;
43449;SDS011;29041;42.266;23.110;2022-09-29T15:02:47;2.15;;;1.13;;
43449;SDS011;29041;42.266;23.110;2022-09-29T15:05:38;1.02;;;0.70;;
43449;SDS011;29041;42.266;23.110;2022-09-29T15:08:27;1.23;;;0.80;;
43449;SDS011;29041;42.266;23.110;2022-09-29T15:14:30;1.23;;;0.60;;
43449;SDS011;29041;42.266;23.110;2022-09-29T15:17:24;2.53;;;1.10;;
43449;SDS011;29041;42.266;23.110;2022-09-29T15:20:22;5.60;;;1.50;;
43449;SDS011;29041;42.266;23.110;2022-09-29T15:26:29;2.03;;;1.02;;
43449;SDS011;29041;42.266;23.110;2022-09-29T15:29:20;2.20;;;1.67;;
43449;SDS011;29041;42.266;23.110;2022-09-29T15:32:13;5.15;;;2.63;;
43449;SDS011;29041;42.266;23.110;2022-09-29T15:35:07;4.13;;;2.53;;
43449;SDS011;29041;42.266;23.110;2022-09-29T15:38:14;1.20;;;1.10;;
43449;SDS011;29041;42.266;23.110;2022-09-29T15:41:13;2.30;;;1.70;;
43449;SDS011;29041;42.266;23.110;2022-09-29T15:44:02;1.30;;;1.00;;
43449;SDS011;29041;42.266;23.110;2022-09-29T15:47:02;1.45;;;1.00;;
43449;SDS011;29041;42.266;23.110;2022-09-29T15:49:49;1.48;;;0.85;;
43449;SDS011;29041;42.266;23.110;2022-09-29T15:52:37;6.47;;;2.65;;
43449;SDS011;29041;42.266;23.110;2022-09-29T15:55:24;1.73;;;1.30;;
43449;SDS011;29041;42.266;23.110;2022-09-29T16:01:28;5.53;;;1.42;;
43449;SDS011;29041;42.266;23.110;2022-09-29T16:04:15;4.07;;;1.35;;
43449;SDS011;29041;42.266;23.110;2022-09-29T16:07:04;1.58;;;1.23;;
43449;SDS011;29041;42.266;23.110;2022-09-29T16:09:51;1.00;;;0.90;;
43449;SDS011;29041;42.266;23.110;2022-09-29T16:12:39;3.70;;;1.60;;
43449;SDS011;29041;42.266;23.110;2022-09-29T16:15:35;6.40;;;1.77;;
43449;SDS011;29041;42.266;23.110;2022-09-29T16:18:28;3.60;;;1.77;;
43449;SDS011;29041;42.266;23.110;2022-09-29T16:21:19;3.58;;;1.92;;
43449;SDS011;29041;42.266;23.110;2022-09-29T16:24:10;6.15;;;1.60;;
43449;SDS011;29041;42.266;23.110;2022-09-29T16:27:03;2.65;;;1.52;;
43449;SDS011;29041;42.266;23.110;2022-09-29T16:30:02;2.35;;;1.88;;
43449;SDS011;29041;42.266;23.110;2022-09-29T16:32:53;2.20;;;1.52;;
43449;SDS011;29041;42.266;23.110;2022-09-29T16:35:44;2.30;;;1.77;;
43449;SDS011;29041;42.266;23.110;2022-09-29T16:38:42;3.30;;;2.00;;
43449;SDS011;29041;42.266;23.110;2022-09-29T16:41:32;3.47;;;2.40;;
43449;SDS011;29041;42.266;23.110;2022-09-29T16:44:23;3.90;;;2.10;;
43449;SDS011;29041;42.266;23.110;2022-09-29T16:47:14;4.45;;;2.05;;
43449;SDS011;29041;42.266;23.110;2022-09-29T16:50:09;3.95;;;2.80;;
43449;SDS011;29041;42.266;23.110;2022-09-29T16:53:01;7.30;;;3.53;;
43449;SDS011;29041;42.266;23.110;2022-09-29T16:55:55;4.53;;;2.55;;
43449;SDS011;29041;42.266;23.110;2022-09-29T16:58:44;7.18;;;3.67;;
43449;SDS011;29041;42.266;23.110;2022-09-29T17:01:47;8.98;;;4.93;;
43449;SDS011;29041;42.266;23.110;2022-09-29T17:04:36;5.50;;;3.42;;
43449;SDS011;29041;42.266;23.110;2022-09-29T17:07:25;7.32;;;3.30;;
43449;SDS011;29041;42.266;23.110;2022-09-29T17:10:15;7.20;;;3.45;;
43449;SDS011;29041;42.266;23.110;2022-09-29T17:13:04;9.10;;;3.95;;
43449;SDS011;29041;42.266;23.110;2022-09-29T17:18:43;4.25;;;2.25;;
43449;SDS011;29041;42.266;23.110;2022-09-29T17:21:31;4.38;;;2.88;;
43449;SDS011;29041;42.266;23.110;2022-09-29T17:24:20;6.70;;;4.07;;
43449;SDS011;29041;42.266;23.110;2022-09-29T17:27:08;4.80;;;2.95;;
43449;SDS011;29041;42.266;23.110;2022-09-29T17:30:13;5.80;;;2.67;;
43449;SDS011;29041;42.266;23.110;2022-09-29T17:33:03;5.40;;;2.53;;
43449;SDS011;29041;42.266;23.110;2022-09-29T17:36:06;3.30;;;2.47;;
43449;SDS011;29041;42.266;23.110;2022-09-29T17:38:59;6.38;;;3.03;;
43449;SDS011;29041;42.266;23.110;2022-09-29T17:41:48;3.58;;;2.15;;